createdAt,value
2022-08-31T00:00:46.063Z,18.70
2022-08-31T00:03:33.744Z,18.70
2022-08-31T00:06:03.786Z,18.70
2022-08-31T00:08:33.346Z,18.70
2022-08-31T00:11:02.879Z,18.70
2022-08-31T00:13:33.253Z,18.70
2022-08-31T00:16:02.771Z,18.70
2022-08-31T00:18:32.567Z,18.70
2022-08-31T00:21:02.042Z,18.70
2022-08-31T00:23:31.527Z,18.70
2022-08-31T00:26:01.029Z,18.70
2022-08-31T00:28:30.593Z,18.70
2022-08-31T00:31:00.077Z,18.70
2022-08-31T00:33:29.896Z,18.70
2022-08-31T00:36:00.973Z,18.70
2022-08-31T00:38:31.144Z,18.80
2022-08-31T00:41:00.656Z,18.70
2022-08-31T00:43:48.405Z,18.70
2022-08-31T00:46:19.798Z,18.80
2022-08-31T00:48:55.913Z,18.80
2022-08-31T00:51:25.749Z,18.80
2022-08-31T00:53:55.672Z,18.80
2022-08-31T00:56:25.158Z,18.80
2022-08-31T00:58:55.143Z,18.80
2022-08-31T01:01:24.911Z,18.80
2022-08-31T01:03:54.559Z,18.80
2022-08-31T01:06:24.012Z,18.80
2022-08-31T01:08:53.570Z,18.80
2022-08-31T01:11:33.303Z,18.80
2022-08-31T01:14:03.170Z,18.80
2022-08-31T01:16:52.865Z,18.80
2022-08-31T01:19:32.796Z,18.90
2022-08-31T01:22:17.711Z,18.80
2022-08-31T01:24:48.113Z,18.90
2022-08-31T01:27:23.485Z,18.90
2022-08-31T01:29:54.032Z,18.90
2022-08-31T01:32:23.681Z,18.90
2022-08-31T01:34:54.004Z,18.90
2022-08-31T01:37:29.167Z,18.80
2022-08-31T01:40:00.297Z,18.90
2022-08-31T01:42:30.940Z,18.90
2022-08-31T01:45:04.433Z,18.90
2022-08-31T01:47:34.125Z,18.90
2022-08-31T01:50:04.198Z,19.00
2022-08-31T01:52:35.475Z,19.20
2022-08-31T01:55:07.200Z,19.30
2022-08-31T01:57:37.024Z,19.40
2022-08-31T02:00:24.549Z,19.50
2022-08-31T02:02:55.051Z,19.50
2022-08-31T02:05:25.837Z,19.60
2022-08-31T02:07:59.251Z,19.60
2022-08-31T02:10:29.217Z,19.60
2022-08-31T02:12:58.769Z,19.60
2022-08-31T02:15:38.750Z,19.70
2022-08-31T02:18:09.028Z,19.70
2022-08-31T02:20:42.113Z,19.70
2022-08-31T02:23:12.706Z,19.70
2022-08-31T02:25:42.128Z,19.60
2022-08-31T02:28:15.013Z,19.70
2022-08-31T02:30:44.914Z,19.70
2022-08-31T02:33:14.491Z,19.70
2022-08-31T02:35:44.913Z,19.70
2022-08-31T02:38:14.536Z,19.70
2022-08-31T02:40:44.528Z,19.70
2022-08-31T02:43:21.142Z,19.70
2022-08-31T02:45:56.902Z,19.70
2022-08-31T02:48:32.425Z,19.80
2022-08-31T02:51:04.650Z,19.80
2022-08-31T02:53:34.542Z,19.80
2022-08-31T02:56:04.875Z,19.90
2022-08-31T02:58:35.918Z,19.90
2022-08-31T03:01:05.574Z,19.90
2022-08-31T03:03:36.075Z,19.90
2022-08-31T03:06:05.929Z,19.90
2022-08-31T03:08:35.612Z,19.90
2022-08-31T03:11:05.094Z,19.90
2022-08-31T03:13:34.637Z,19.90
2022-08-31T03:16:04.529Z,19.90
2022-08-31T03:18:34.898Z,20.00
2022-08-31T03:21:04.447Z,20.00
2022-08-31T03:23:34.018Z,20.00
2022-08-31T03:26:06.640Z,20.00
2022-08-31T03:28:37.147Z,20.10
2022-08-31T03:31:25.978Z,20.10
2022-08-31T03:33:56.987Z,20.20
2022-08-31T03:36:27.003Z,20.10
2022-08-31T03:38:56.766Z,20.10
2022-08-31T03:41:26.607Z,20.20
2022-08-31T03:43:58.055Z,20.20
2022-08-31T03:46:28.163Z,20.20
2022-08-31T03:48:58.424Z,20.20
2022-08-31T03:51:29.162Z,20.20
2022-08-31T03:53:58.932Z,20.20
2022-08-31T03:56:28.747Z,20.20
2022-08-31T03:58:58.417Z,20.20
2022-08-31T04:01:46.234Z,20.20
2022-08-31T04:04:33.796Z,20.20
2022-08-31T04:07:21.949Z,20.20
2022-08-31T04:10:24.220Z,20.20
2022-08-31T04:13:16.407Z,20.20
2022-08-31T04:16:14.218Z,20.20
2022-08-31T04:19:03.977Z,20.20
2022-08-31T04:21:45.321Z,20.30
2022-08-31T04:24:15.029Z,20.30
2022-08-31T04:26:45.086Z,20.30
2022-08-31T04:29:14.965Z,20.30
2022-08-31T04:31:44.541Z,20.30
2022-08-31T04:34:14.658Z,20.30
2022-08-31T04:36:46.647Z,20.30
2022-08-31T04:39:17.396Z,20.40
2022-08-31T04:41:51.127Z,20.40
2022-08-31T04:44:22.082Z,20.40
2022-08-31T04:46:59.119Z,20.40
2022-08-31T04:49:29.311Z,20.50
2022-08-31T04:51:58.805Z,20.50
2022-08-31T04:54:32.850Z,20.50
2022-08-31T04:57:02.986Z,20.50
2022-08-31T04:59:35.321Z,20.60
2022-08-31T05:02:37.182Z,20.60
2022-08-31T05:05:18.638Z,20.60
2022-08-31T05:07:48.174Z,20.60
2022-08-31T05:10:17.817Z,20.60
2022-08-31T05:12:47.701Z,20.70
2022-08-31T05:15:17.587Z,20.70
2022-08-31T05:17:47.036Z,20.80
2022-08-31T05:20:16.682Z,20.70
2022-08-31T05:22:46.257Z,20.80
2022-08-31T05:25:15.729Z,20.80
2022-08-31T05:27:45.361Z,20.90
2022-08-31T05:30:15.792Z,20.90
2022-08-31T05:33:03.907Z,20.90
2022-08-31T05:35:34.126Z,20.90
2022-08-31T05:38:03.878Z,21.00
2022-08-31T05:40:33.668Z,21.00
2022-08-31T05:43:03.275Z,21.10
2022-08-31T05:45:33.158Z,21.10
2022-08-31T05:48:03.634Z,21.10
2022-08-31T05:50:35.836Z,21.20
2022-08-31T05:53:05.932Z,21.20
2022-08-31T05:55:35.485Z,21.20
2022-08-31T05:58:07.843Z,21.30
2022-08-31T06:00:40.072Z,21.30
2022-08-31T06:03:27.926Z,21.30
2022-08-31T06:05:58.156Z,21.40
2022-08-31T06:08:28.124Z,21.40
2022-08-31T06:11:00.533Z,21.50
2022-08-31T06:13:30.472Z,21.50
2022-08-31T06:16:02.660Z,21.60
2022-08-31T06:18:32.885Z,21.60
2022-08-31T06:21:03.333Z,21.60
2022-08-31T06:23:32.889Z,21.70
2022-08-31T06:26:03.410Z,21.70
2022-08-31T06:28:33.916Z,21.80
2022-08-31T06:31:05.787Z,21.80
2022-08-31T06:33:36.766Z,21.90
2022-08-31T06:36:16.631Z,22.00
2022-08-31T06:39:13.865Z,22.00
2022-08-31T06:42:00.654Z,22.10
2022-08-31T06:45:03.174Z,22.10
2022-08-31T06:47:45.588Z,22.20
2022-08-31T06:50:17.086Z,22.60
2022-08-31T06:52:49.829Z,24.00
2022-08-31T06:55:39.715Z,25.40
2022-08-31T06:58:28.433Z,26.30
2022-08-31T07:01:35.311Z,26.90
2022-08-31T07:04:25.593Z,27.30
2022-08-31T07:06:55.617Z,27.80
2022-08-31T07:09:26.283Z,28.00
2022-08-31T07:11:56.057Z,28.20
2022-08-31T07:14:26.519Z,28.20
2022-08-31T07:16:58.768Z,28.40
2022-08-31T07:19:29.536Z,28.50
2022-08-31T07:21:59.914Z,28.40
2022-08-31T07:24:31.425Z,28.60
2022-08-31T07:27:02.094Z,28.50
2022-08-31T07:29:43.592Z,28.30
2022-08-31T07:32:16.281Z,28.30
2022-08-31T07:34:47.449Z,28.20
2022-08-31T07:38:00.184Z,28.30
2022-08-31T07:40:52.204Z,28.30
2022-08-31T07:43:25.246Z,28.20
2022-08-31T07:45:55.132Z,28.20
2022-08-31T07:48:29.266Z,28.00
2022-08-31T07:51:15.162Z,28.00
2022-08-31T07:54:05.848Z,28.00
2022-08-31T07:56:47.875Z,28.10
2022-08-31T07:59:23.099Z,28.00
2022-08-31T08:01:57.144Z,28.00
2022-08-31T08:04:27.387Z,28.10
2022-08-31T08:07:26.246Z,28.00
2022-08-31T08:10:31.190Z,27.90
2022-08-31T08:13:26.474Z,27.90
2022-08-31T08:16:02.397Z,27.80
2022-08-31T08:18:53.127Z,27.80
2022-08-31T08:21:28.251Z,27.80
2022-08-31T08:23:58.479Z,27.80
2022-08-31T08:26:54.140Z,27.70
2022-08-31T08:29:39.474Z,27.70
2022-08-31T08:32:16.816Z,27.70
2022-08-31T08:34:47.586Z,27.70
2022-08-31T08:37:17.405Z,27.80
2022-08-31T08:39:47.677Z,27.80
2022-08-31T08:42:22.331Z,27.70
2022-08-31T08:44:52.021Z,27.80
2022-08-31T08:47:24.057Z,27.80
2022-08-31T08:50:06.696Z,27.80
2022-08-31T08:52:44.171Z,27.90
2022-08-31T08:55:18.016Z,27.90
2022-08-31T08:57:51.099Z,28.00
2022-08-31T09:00:26.226Z,27.90
2022-08-31T09:03:02.295Z,27.60
2022-08-31T09:06:11.936Z,27.20
2022-08-31T09:08:51.118Z,26.90
2022-08-31T09:11:34.005Z,26.70
2022-08-31T09:14:11.753Z,26.50
2022-08-31T09:16:49.953Z,26.30
2022-08-31T09:19:21.737Z,26.10
2022-08-31T09:21:56.051Z,26.00
2022-08-31T09:24:29.498Z,25.90
2022-08-31T09:27:39.262Z,25.80
2022-08-31T09:30:09.201Z,25.60
2022-08-31T09:32:40.351Z,25.50
2022-08-31T09:35:10.745Z,25.40
2022-08-31T09:37:49.313Z,25.30
2022-08-31T09:40:23.178Z,25.30
2022-08-31T09:43:07.253Z,25.20
2022-08-31T09:45:41.877Z,25.10
2022-08-31T09:48:11.738Z,25.00
2022-08-31T09:50:48.188Z,24.90
2022-08-31T09:53:46.017Z,24.90
2022-08-31T09:56:21.430Z,24.80
2022-08-31T09:58:52.022Z,24.70
2022-08-31T10:01:23.758Z,24.60
2022-08-31T10:03:54.205Z,24.60
2022-08-31T10:06:45.198Z,24.50
2022-08-31T10:09:19.269Z,24.40
2022-08-31T10:11:49.597Z,24.40
2022-08-31T10:14:23.950Z,24.30
2022-08-31T10:17:14.255Z,24.20
2022-08-31T10:20:07.290Z,24.10
2022-08-31T10:22:48.299Z,24.00
2022-08-31T10:25:22.299Z,24.00
2022-08-31T10:27:53.537Z,23.90
2022-08-31T10:30:48.114Z,23.90
2022-08-31T10:33:19.171Z,23.90
2022-08-31T10:35:53.160Z,23.80
2022-08-31T10:38:36.727Z,23.70
2022-08-31T10:41:30.109Z,23.70
2022-08-31T10:44:08.263Z,23.70
2022-08-31T10:46:38.718Z,23.60
2022-08-31T10:49:08.533Z,23.60
2022-08-31T10:51:50.372Z,23.50
2022-08-31T10:54:34.255Z,23.50
2022-08-31T10:57:22.525Z,23.40
2022-08-31T11:00:03.577Z,23.40
2022-08-31T11:02:45.010Z,23.40
2022-08-31T11:05:19.688Z,23.30
2022-08-31T11:07:59.217Z,23.30
2022-08-31T11:10:35.127Z,23.20
2022-08-31T11:13:06.505Z,23.20
2022-08-31T11:15:40.243Z,23.20
2022-08-31T11:18:10.957Z,23.10
2022-08-31T11:20:59.024Z,23.10
2022-08-31T11:23:28.478Z,23.00
2022-08-31T11:26:15.582Z,23.00
2022-08-31T11:28:46.554Z,23.00
2022-08-31T11:31:24.924Z,23.00
2022-08-31T11:34:16.385Z,22.90
2022-08-31T11:36:54.935Z,22.90
2022-08-31T11:39:46.671Z,22.80
2022-08-31T11:42:28.391Z,22.80
2022-08-31T11:45:02.073Z,22.80
2022-08-31T11:47:31.884Z,22.70
2022-08-31T11:50:05.794Z,22.60
2022-08-31T11:52:44.293Z,22.60
2022-08-31T11:55:16.626Z,22.50
2022-08-31T11:58:11.108Z,22.50
2022-08-31T12:00:52.439Z,22.50
2022-08-31T12:03:38.202Z,22.50
2022-08-31T12:06:09.458Z,22.50
2022-08-31T12:08:53.334Z,22.50
2022-08-31T12:11:43.400Z,22.40
2022-08-31T12:14:39.141Z,22.30
2022-08-31T12:17:14.424Z,22.30
2022-08-31T12:20:02.555Z,22.20
2022-08-31T12:23:10.039Z,22.20
2022-08-31T12:25:57.677Z,22.10
2022-08-31T12:28:47.775Z,22.10
2022-08-31T12:31:18.542Z,22.00
2022-08-31T12:34:26.337Z,21.90
2022-08-31T12:36:55.879Z,21.90
2022-08-31T12:39:26.664Z,21.80
2022-08-31T12:42:00.723Z,21.80
2022-08-31T12:44:37.481Z,21.70
2022-08-31T12:47:25.706Z,21.70
2022-08-31T12:50:15.896Z,21.70
2022-08-31T12:52:47.542Z,21.60
2022-08-31T12:55:19.892Z,21.60
2022-08-31T12:58:11.742Z,21.60
2022-08-31T13:00:41.892Z,21.50
2022-08-31T13:03:21.077Z,21.50
2022-08-31T13:06:20.035Z,21.40
2022-08-31T13:08:51.124Z,21.40
2022-08-31T13:11:33.099Z,21.40
2022-08-31T13:14:12.409Z,21.40
2022-08-31T13:16:49.453Z,21.30
2022-08-31T13:19:26.887Z,21.20
2022-08-31T13:21:58.010Z,21.20
2022-08-31T13:24:32.900Z,21.20
2022-08-31T13:27:11.283Z,21.20
2022-08-31T13:29:46.229Z,21.10
2022-08-31T13:32:35.783Z,21.10
2022-08-31T13:35:06.803Z,21.10
2022-08-31T13:37:38.971Z,21.00
2022-08-31T13:40:12.257Z,21.00
2022-08-31T13:42:44.108Z,21.00
2022-08-31T13:45:27.390Z,21.00
2022-08-31T13:47:58.454Z,21.00
2022-08-31T13:50:31.922Z,20.90
2022-08-31T13:55:52.186Z,20.80
2022-08-31T13:58:24.701Z,20.80
2022-08-31T14:00:59.387Z,20.80
2022-08-31T14:03:33.764Z,20.80
2022-08-31T14:06:25.297Z,20.70
2022-08-31T14:08:56.110Z,20.70
2022-08-31T14:11:29.600Z,20.70
2022-08-31T14:14:06.379Z,20.70
2022-08-31T14:16:39.521Z,20.60
2022-08-31T14:19:13.299Z,20.60
2022-08-31T14:21:43.373Z,20.60
2022-08-31T14:24:13.392Z,20.60
2022-08-31T14:26:43.883Z,20.60
2022-08-31T14:29:14.433Z,20.50
2022-08-31T14:31:50.221Z,20.50
2022-08-31T14:34:23.736Z,20.50
2022-08-31T14:37:20.931Z,20.50
2022-08-31T14:40:07.660Z,20.50
2022-08-31T14:42:38.604Z,20.40
2022-08-31T14:45:11.124Z,20.40
2022-08-31T14:47:43.768Z,20.40
2022-08-31T14:50:14.223Z,20.40
2022-08-31T14:52:45.533Z,20.40
2022-08-31T14:55:15.373Z,20.30
2022-08-31T14:57:45.751Z,20.30
2022-08-31T15:00:24.130Z,20.30
2022-08-31T15:02:57.908Z,20.30
2022-08-31T15:05:27.502Z,20.20
2022-08-31T15:07:57.385Z,20.20
2022-08-31T15:10:27.965Z,20.20
2022-08-31T15:12:58.214Z,20.20
2022-08-31T15:15:28.051Z,20.20
2022-08-31T15:18:30.225Z,20.20
2022-08-31T15:20:59.987Z,20.20
2022-08-31T15:23:30.282Z,20.20
2022-08-31T15:26:07.725Z,20.10
2022-08-31T15:28:39.489Z,20.10
2022-08-31T15:31:13.990Z,20.10
2022-08-31T15:33:45.519Z,20.10
2022-08-31T15:36:17.523Z,20.10
2022-08-31T15:38:51.279Z,20.10
2022-08-31T15:41:25.313Z,20.10
2022-08-31T15:43:55.614Z,20.10
2022-08-31T15:46:43.101Z,20.00
2022-08-31T15:49:13.555Z,20.00
2022-08-31T15:51:51.357Z,20.00
2022-08-31T15:54:35.436Z,20.00
2022-08-31T15:57:09.176Z,20.00
2022-08-31T15:59:39.229Z,20.00
2022-08-31T16:02:09.176Z,20.00
2022-08-31T16:04:43.296Z,20.00
2022-08-31T16:07:13.839Z,20.00
2022-08-31T16:09:47.469Z,19.90
2022-08-31T16:12:18.860Z,19.90
2022-08-31T16:14:53.025Z,19.90
2022-08-31T16:17:23.394Z,19.90
2022-08-31T16:19:53.744Z,19.90
2022-08-31T16:22:28.280Z,19.90
2022-08-31T16:25:01.416Z,19.90
2022-08-31T16:27:31.337Z,19.90
2022-08-31T16:30:01.130Z,19.90
2022-08-31T16:32:31.591Z,19.80
2022-08-31T16:35:01.072Z,19.80
2022-08-31T16:37:30.507Z,19.80
2022-08-31T16:40:00.065Z,19.80
2022-08-31T16:42:29.670Z,19.80
2022-08-31T16:45:02.193Z,19.80
2022-08-31T16:47:32.424Z,19.80
2022-08-31T16:50:03.564Z,19.80
2022-08-31T16:52:33.683Z,19.80
2022-08-31T16:55:03.597Z,19.80
2022-08-31T16:57:33.939Z,19.70
2022-08-31T17:00:06.010Z,19.70
2022-08-31T17:02:36.083Z,19.70
2022-08-31T17:05:05.856Z,19.70
2022-08-31T17:07:35.457Z,19.70
2022-08-31T17:10:07.764Z,19.70
2022-08-31T17:12:39.468Z,19.70
2022-08-31T17:15:10.982Z,19.60
2022-08-31T17:17:40.791Z,19.60
2022-08-31T17:20:10.568Z,19.60
2022-08-31T17:22:40.169Z,19.60
2022-08-31T17:25:10.391Z,19.60
2022-08-31T17:27:39.835Z,19.70
2022-08-31T17:30:09.690Z,19.60
2022-08-31T17:32:44.697Z,19.60
2022-08-31T17:35:19.387Z,19.50
2022-08-31T17:37:50.166Z,19.60
2022-08-31T17:40:19.723Z,19.60
2022-08-31T17:42:50.952Z,19.50
2022-08-31T17:45:22.373Z,19.50
2022-08-31T17:47:52.282Z,19.50
2022-08-31T17:50:22.381Z,19.50
2022-08-31T17:52:51.908Z,19.50
2022-08-31T17:55:21.474Z,19.50
2022-08-31T17:57:51.013Z,19.50
2022-08-31T18:00:20.618Z,19.40
2022-08-31T18:02:50.461Z,19.40
2022-08-31T18:05:19.970Z,19.40
2022-08-31T18:07:51.337Z,19.40
2022-08-31T18:10:21.460Z,19.40
2022-08-31T18:12:51.172Z,19.40
2022-08-31T18:15:20.746Z,19.40
2022-08-31T18:17:51.022Z,19.40
2022-08-31T18:20:20.611Z,19.40
2022-08-31T18:22:52.427Z,19.30
2022-08-31T18:25:22.238Z,19.30
2022-08-31T18:27:52.406Z,19.30
2022-08-31T18:30:22.056Z,19.30
2022-08-31T18:32:52.365Z,19.30
2022-08-31T18:35:22.075Z,19.30
2022-08-31T18:37:51.896Z,19.30
2022-08-31T18:40:39.703Z,19.30
2022-08-31T18:43:28.077Z,19.20
2022-08-31T18:45:58.813Z,19.20
2022-08-31T18:48:29.633Z,19.20
2022-08-31T18:51:00.022Z,19.20
2022-08-31T18:53:31.801Z,19.20
2022-08-31T18:56:10.611Z,19.20
2022-08-31T18:58:40.258Z,19.20
2022-08-31T19:01:12.108Z,19.20
2022-08-31T19:03:42.202Z,19.20
2022-08-31T19:06:17.957Z,19.20
2022-08-31T19:08:47.914Z,19.20
2022-08-31T19:11:17.542Z,19.10
2022-08-31T19:13:50.669Z,19.20
2022-08-31T19:16:22.612Z,19.10
2022-08-31T19:18:52.244Z,19.10
2022-08-31T19:21:23.844Z,19.10
2022-08-31T19:23:53.904Z,19.10
2022-08-31T19:26:27.975Z,19.10
2022-08-31T19:28:57.947Z,19.10
2022-08-31T19:31:28.186Z,19.10
2022-08-31T19:33:58.126Z,19.10
2022-08-31T19:36:28.563Z,19.10
2022-08-31T19:38:58.005Z,19.00
2022-08-31T19:41:27.934Z,19.00
2022-08-31T19:44:07.794Z,19.10
2022-08-31T19:46:41.894Z,19.10
2022-08-31T19:49:12.142Z,19.10
2022-08-31T19:51:45.983Z,19.10
2022-08-31T19:54:15.858Z,19.00
2022-08-31T19:56:45.849Z,19.00
2022-08-31T19:59:19.201Z,19.00
2022-08-31T20:01:49.727Z,19.00
2022-08-31T20:04:20.262Z,18.90
2022-08-31T20:06:53.314Z,18.90
2022-08-31T20:09:23.634Z,19.00
2022-08-31T20:11:53.790Z,19.00
2022-08-31T20:14:24.545Z,18.90
2022-08-31T20:16:54.171Z,18.90
2022-08-31T20:19:25.972Z,18.90
2022-08-31T20:21:59.176Z,18.90
2022-08-31T20:24:29.937Z,19.00
2022-08-31T20:27:09.579Z,18.90
2022-08-31T20:29:39.946Z,18.90
2022-08-31T20:32:09.387Z,18.90
2022-08-31T20:34:39.738Z,18.90
2022-08-31T20:37:09.490Z,18.90
2022-08-31T20:39:40.447Z,18.90
2022-08-31T20:42:10.253Z,18.80
2022-08-31T20:44:39.878Z,18.90
2022-08-31T20:47:28.155Z,18.90
2022-08-31T20:49:58.944Z,18.80
2022-08-31T20:52:29.596Z,18.90
2022-08-31T20:55:02.021Z,18.80
2022-08-31T20:57:33.479Z,18.80
2022-08-31T21:00:15.047Z,18.80
2022-08-31T21:02:45.205Z,18.80
2022-08-31T21:05:37.011Z,18.80
2022-08-31T21:08:06.714Z,18.80
2022-08-31T21:10:38.292Z,18.80
2022-08-31T21:13:08.944Z,18.80
2022-08-31T21:15:43.104Z,18.80
2022-08-31T21:18:13.301Z,18.80
2022-08-31T21:20:43.772Z,18.80
2022-08-31T21:23:14.648Z,18.70
2022-08-31T21:25:46.051Z,18.70
2022-08-31T21:28:18.422Z,18.70
2022-08-31T21:30:50.528Z,18.70
2022-08-31T21:33:20.605Z,18.70
2022-08-31T21:35:50.208Z,18.70
2022-08-31T21:38:20.142Z,18.70
2022-08-31T21:40:50.588Z,18.70
2022-08-31T21:43:20.586Z,18.70
2022-08-31T21:45:54.998Z,18.70
2022-08-31T21:48:25.878Z,18.70
2022-08-31T21:50:56.883Z,18.70
2022-08-31T21:53:27.026Z,18.70
2022-08-31T21:55:56.509Z,18.70
2022-08-31T21:58:25.964Z,18.60
2022-08-31T22:00:56.653Z,18.60
2022-08-31T22:03:27.030Z,18.70
2022-08-31T22:05:56.824Z,18.70
2022-08-31T22:08:27.321Z,18.70
2022-08-31T22:10:56.826Z,18.70
2022-08-31T22:13:26.272Z,18.60
2022-08-31T22:15:58.362Z,18.60
2022-08-31T22:21:24.188Z,18.60
2022-08-31T22:23:55.865Z,18.70
2022-08-31T22:26:28.052Z,18.70
2022-08-31T22:28:58.057Z,18.60
2022-08-31T22:31:28.685Z,18.60
2022-08-31T22:33:58.830Z,18.60
2022-08-31T22:36:32.700Z,18.60
2022-08-31T22:39:06.769Z,18.70
2022-08-31T22:41:38.522Z,18.70
2022-08-31T22:44:09.523Z,18.60
2022-08-31T22:46:39.506Z,18.60
2022-08-31T22:49:09.467Z,18.60
2022-08-31T22:51:39.490Z,18.60
2022-08-31T22:54:09.451Z,18.60
2022-08-31T22:56:39.342Z,18.60
2022-08-31T22:59:10.132Z,18.70
2022-08-31T23:01:43.040Z,18.60
2022-08-31T23:04:13.591Z,18.70
2022-08-31T23:06:43.197Z,18.70
2022-08-31T23:09:12.713Z,18.60
2022-08-31T23:11:42.556Z,18.60
2022-08-31T23:14:12.471Z,18.70
2022-08-31T23:16:43.501Z,18.70
2022-08-31T23:19:15.367Z,18.70
2022-08-31T23:21:52.764Z,18.70
2022-08-31T23:24:29.151Z,18.70
2022-08-31T23:27:03.871Z,18.70
2022-08-31T23:29:36.612Z,18.70
2022-08-31T23:32:06.767Z,18.70
2022-08-31T23:34:39.630Z,18.70
2022-08-31T23:37:10.099Z,18.80
2022-08-31T23:39:46.376Z,18.80
2022-08-31T23:42:17.399Z,18.80
2022-08-31T23:44:47.763Z,18.80
2022-08-31T23:47:30.177Z,18.80
2022-08-31T23:50:02.229Z,18.80
2022-08-31T23:52:35.515Z,18.80
2022-08-31T23:55:05.519Z,18.80
2022-08-31T23:57:35.028Z,18.80
